Time;durP1;ratioP1;P1;durP2;ratioP2;P2;SDS_P1;SDS_P2;PMS_P1;PMS_P2;Temp;Humidity;BMP_temperature;BMP_pressure;BME280_temperature;BME280_humidity;BME280_pressure;Samples;Min_cycle;Max_cycle;Signal;HPM_P1;HPM_P2
2022/06/16 00:01:55;;;;;;;2.55;1.10;;;;;;;14.64;73.43;101633.47;6376435;27;20517;-76
2022/06/16 00:04:56;;;;;;;1.85;1.00;;;;;;;14.63;73.78;101632.63;6374986;27;20054;-76
2022/06/16 00:07:59;;;;;;;2.83;1.17;;;;;;;14.64;73.67;101629.03;6375482;27;20513;-75
2022/06/16 00:11:19;;;;;;;2.90;1.13;;;;;;;14.57;74.42;101632.94;6374854;27;20050;-76
2022/06/16 00:14:23;;;;;;;2.95;1.20;;;;;;;14.51;75.64;101637.75;6374958;27;20051;-76
2022/06/16 00:17:24;;;;;;;3.17;1.00;;;;;;;14.69;75.52;101637.56;6375159;27;20387;-76
2022/06/16 00:20:26;;;;;;;3.70;1.42;;;;;;;14.77;74.88;101644.22;6374673;27;20510;-75
2022/06/16 00:23:29;;;;;;;0.93;0.80;;;;;;;14.66;75.05;101645.66;6375052;27;20044;-76
2022/06/16 00:26:30;;;;;;;3.05;1.25;;;;;;;14.58;75.99;101644.38;6374381;27;20050;-75
2022/06/16 00:29:33;;;;;;;2.10;1.15;;;;;;;14.43;77.07;101654.00;6374875;27;20043;-76
2022/06/16 00:32:36;;;;;;;2.72;1.15;;;;;;;14.36;77.60;101658.78;6375449;27;20521;-76
2022/06/16 00:35:37;;;;;;;1.42;1.10;;;;;;;14.33;78.40;101663.38;6395078;27;20046;-76
2022/06/16 00:38:41;;;;;;;6.78;1.27;;;;;;;14.26;79.46;101657.56;6400127;27;20051;-75
2022/06/16 00:41:42;;;;;;;2.42;0.98;;;;;;;14.43;79.31;101668.06;6399719;27;20043;-75
2022/06/16 00:44:46;;;;;;;2.53;1.20;;;;;;;14.51;78.61;101657.09;6399846;27;20504;-76
2022/06/16 00:47:47;;;;;;;1.65;0.93;;;;;;;14.47;79.15;101653.75;6400246;27;20417;-76
2022/06/16 00:50:55;;;;;;;1.85;0.90;;;;;;;14.50;78.90;101643.97;6399617;27;20054;-76
2022/06/16 00:54:04;;;;;;;1.38;1.15;;;;;;;14.39;79.12;101648.00;6399595;27;20490;-75
2022/06/16 00:57:08;;;;;;;1.60;1.15;;;;;;;14.37;79.40;101646.41;6399961;27;20047;-76
2022/06/16 01:00:15;;;;;;;4.05;1.55;;;;;;;14.23;80.32;101641.88;6399227;27;20402;-75
2022/06/16 01:04:51;;;;;;;2.15;1.40;;;;;;;14.09;80.55;101641.75;6390555;27;20054;-76
2022/06/16 01:06:37;;;;;;;1.92;1.15;;;;;;;14.06;81.46;101628.69;6395841;27;20047;-76
2022/06/16 01:09:42;;;;;;;2.30;1.38;;;;;;;14.01;81.73;101625.47;6372921;27;20058;-76
2022/06/16 01:16:37;;;;;;;3.70;1.30;;;;;;;14.12;81.95;101633.66;6370879;27;20051;-75
2022/06/16 01:19:56;;;;;;;1.25;0.93;;;;;;;14.04;81.68;101633.22;6373236;27;20047;-76
2022/06/16 01:23:17;;;;;;;;;;;;;;;13.99;82.74;101627.31;6373050;27;20042;-75
2022/06/16 01:26:42;;;;;;;6.55;1.20;;;;;;;13.92;83.26;101611.78;6370220;27;19927;-76
2022/06/16 01:29:54;;;;;;;1.42;1.33;;;;;;;13.89;83.87;101619.88;6371074;27;20043;-76
2022/06/16 01:33:04;;;;;;;2.08;1.10;;;;;;;13.92;84.63;101621.50;6371158;27;20046;-73
2022/06/16 01:36:11;;;;;;;1.92;1.08;;;;;;;13.94;83.95;101622.28;6371350;27;20768;-74
2022/06/16 01:39:17;;;;;;;3.22;1.67;;;;;;;13.98;84.81;101629.09;6347393;28;20047;-73
2022/06/16 01:42:25;;;;;;;6.68;1.15;;;;;;;13.96;84.85;101631.00;6347443;28;20541;-74
2022/06/16 01:45:32;;;;;;;2.15;1.15;;;;;;;13.88;85.50;101622.59;6355839;27;20421;-74
2022/06/16 01:48:35;;;;;;;3.63;1.00;;;;;;;13.89;86.32;101626.94;6371233;27;20062;-74
2022/06/16 01:51:42;;;;;;;1.10;1.00;;;;;;;13.90;86.42;101632.19;6370624;27;20043;-72
2022/06/16 01:54:49;;;;;;;5.78;1.30;;;;;;;13.83;86.39;101628.13;6370910;27;20047;-76
2022/06/16 01:57:56;;;;;;;1.45;1.27;;;;;;;13.90;86.83;101623.41;6371072;27;20701;-74
2022/06/16 02:01:02;;;;;;;2.13;1.15;;;;;;;13.96;86.92;101631.84;6371509;27;20497;-73
2022/06/16 02:04:11;;;;;;;2.25;1.10;;;;;;;13.92;86.83;101646.16;6394997;27;20124;-73
2022/06/16 02:07:17;;;;;;;2.85;1.00;;;;;;;13.91;87.31;101633.88;6398354;27;20050;-73
2022/06/16 02:10:23;;;;;;;3.17;1.08;;;;;;;13.89;87.08;101630.44;6393081;27;20467;-74
2022/06/16 02:13:27;;;;;;;2.42;1.33;;;;;;;13.69;88.28;101634.16;6372575;27;20043;-74
2022/06/16 02:16:33;;;;;;;2.70;1.30;;;;;;;13.51;90.35;101634.25;6371849;27;20047;-74
2022/06/16 02:19:34;;;;;;;1.27;1.05;;;;;;;13.65;90.90;101635.25;6372564;27;20498;-73
2022/06/16 02:22:36;;;;;;;5.78;1.42;;;;;;;13.74;90.09;101640.97;6371717;27;20043;-73
2022/06/16 02:25:37;;;;;;;2.90;1.40;;;;;;;13.80;89.50;101633.56;6372065;27;20164;-73
2022/06/16 02:28:44;;;;;;;1.83;1.17;;;;;;;13.66;89.95;101628.16;6372038;27;20047;-74
2022/06/16 02:31:57;;;;;;;1.52;1.20;;;;;;;13.58;90.70;101618.03;6372012;27;20127;-73
2022/06/16 02:35:08;;;;;;;3.00;1.50;;;;;;;13.58;91.28;101632.97;6357515;27;20059;-76
2022/06/16 02:38:21;;;;;;;1.05;0.90;;;;;;;13.62;91.58;101653.88;6372338;27;20506;-73
2022/06/16 02:41:34;;;;;;;5.63;1.98;;;;;;;13.60;92.07;101657.53;6371373;27;20044;-73
2022/06/16 02:44:46;;;;;;;3.17;1.25;;;;;;;13.60;92.87;101658.41;6371842;27;20050;-73
2022/06/16 02:48:00;;;;;;;2.78;1.40;;;;;;;13.70;92.04;101635.84;6371829;28;20043;-73
2022/06/16 02:51:08;;;;;;;3.17;1.50;;;;;;;13.65;92.75;101629.09;6371438;28;20055;-76
2022/06/16 02:54:21;;;;;;;1.33;1.08;;;;;;;13.71;92.53;101621.69;6371404;28;20050;-74
2022/06/16 02:57:31;;;;;;;3.35;1.10;;;;;;;13.67;92.73;101621.94;6368795;28;20055;-73
2022/06/16 03:00:39;;;;;;;1.23;1.13;;;;;;;13.60;93.53;101620.56;6390706;27;20043;-73
2022/06/16 03:03:42;;;;;;;1.67;1.00;;;;;;;13.69;93.50;101618.31;6374802;27;20070;-72
2022/06/16 03:06:45;;;;;;;4.68;1.38;;;;;;;13.71;93.19;101597.06;6371350;28;20047;-74
2022/06/16 03:09:47;;;;;;;1.95;1.27;;;;;;;13.63;93.09;101596.66;6371110;27;20058;-72
2022/06/16 03:12:48;;;;;;;1.70;1.17;;;;;;;13.51;93.79;101621.91;6371759;28;20418;-73
2022/06/16 03:15:52;;;;;;;2.72;1.02;;;;;;;13.55;95.07;101643.72;6371150;28;20066;-74
2022/06/16 03:18:55;;;;;;;1.20;1.00;;;;;;;13.51;95.36;101653.59;6371711;28;20054;-74
2022/06/16 03:21:57;;;;;;;2.90;1.40;;;;;;;13.60;95.01;101655.75;6371072;28;20039;-73
2022/06/16 03:24:58;;;;;;;1.67;1.30;;;;;;;13.45;96.30;101657.41;6371339;28;20063;-74
2022/06/16 03:27:59;;;;;;;4.50;2.40;;;;;;;13.47;97.50;101653.81;6371610;28;20053;-73
2022/06/16 03:31:01;;;;;;;2.88;1.38;;;;;;;13.56;96.80;101654.19;6371745;27;20047;-73
2022/06/16 03:34:03;;;;;;;1.67;1.20;;;;;;;13.49;97.22;101644.91;6371406;27;20043;-74
2022/06/16 03:37:05;;;;;;;1.92;1.17;;;;;;;13.56;97.31;101645.44;6376085;27;20043;-73
2022/06/16 03:40:08;;;;;;;1.90;1.25;;;;;;;13.58;96.87;101649.72;6375790;27;20881;-73
2022/06/16 03:43:10;;;;;;;3.40;1.45;;;;;;;13.63;96.04;101647.69;6375877;27;20047;-73
2022/06/16 03:46:12;;;;;;;7.65;1.35;;;;;;;13.61;96.55;101657.47;6375636;27;20091;-73
2022/06/16 03:49:15;;;;;;;3.33;1.50;;;;;;;13.58;95.50;101668.19;6375878;27;20051;-74
2022/06/16 03:52:16;;;;;;;2.47;1.50;;;;;;;13.43;97.12;101668.97;6375659;27;20055;-74
2022/06/16 03:55:18;;;;;;;3.08;1.60;;;;;;;13.37;97.89;101679.84;6375259;27;20399;-73
2022/06/16 03:58:19;;;;;;;2.45;1.50;;;;;;;13.35;97.97;101682.56;6375713;27;20051;-74
2022/06/16 04:01:21;;;;;;;3.50;1.48;;;;;;;13.29;99.13;101685.50;6376429;27;20050;-74
2022/06/16 04:04:23;;;;;;;1.95;1.30;;;;;;;13.28;99.42;101675.88;6374987;27;20043;-74
2022/06/16 04:07:24;;;;;;;3.45;1.75;;;;;;;13.31;99.17;101681.00;6375737;27;20070;-74
2022/06/16 04:10:26;;;;;;;1.02;0.93;;;;;;;13.40;98.80;101683.19;6374837;27;20051;-73
2022/06/16 04:13:27;;;;;;;1.67;1.38;;;;;;;13.44;98.43;101690.03;6375499;27;20047;-74
2022/06/16 04:16:31;;;;;;;2.70;1.20;;;;;;;13.47;98.33;101696.06;6374846;27;20495;-74
2022/06/16 04:19:33;;;;;;;3.05;1.30;;;;;;;13.34;99.54;101707.22;6375063;27;20439;-74
2022/06/16 04:22:35;;;;;;;1.15;0.98;;;;;;;13.34;99.32;101707.22;6374693;27;20046;-73
2022/06/16 04:25:36;;;;;;;3.40;1.17;;;;;;;13.32;99.13;101713.53;6374813;27;20055;-73
2022/06/16 04:28:38;;;;;;;2.13;1.50;;;;;;;13.32;100.00;101721.47;6374893;27;20047;-73
2022/06/16 04:31:39;;;;;;;2.08;1.10;;;;;;;13.31;100.00;101717.97;6383119;27;20053;-75
2022/06/16 04:34:43;;;;;;;1.90;1.30;;;;;;;13.41;100.00;101727.13;6400313;27;20049;-73
2022/06/16 04:37:45;;;;;;;7.10;1.40;;;;;;;13.47;100.00;101727.75;6389971;27;20051;-74
2022/06/16 04:40:46;;;;;;;5.40;1.25;;;;;;;13.64;100.00;101723.34;6388122;27;20070;-74
2022/06/16 04:43:47;;;;;;;1.80;1.55;;;;;;;13.73;100.00;101726.47;6399410;27;20046;-74
2022/06/16 04:46:49;;;;;;;4.07;1.55;;;;;;;13.70;99.84;101730.94;6399214;27;20047;-75
2022/06/16 04:49:52;;;;;;;2.13;1.40;;;;;;;13.70;99.78;101733.59;6399755;27;20512;-74
2022/06/16 04:52:53;;;;;;;2.35;1.30;;;;;;;13.66;99.26;101725.91;6400255;27;20048;-74
2022/06/16 04:55:56;;;;;;;7.03;1.38;;;;;;;13.61;99.14;101720.84;6399632;27;20545;-74
2022/06/16 04:58:57;;;;;;;2.45;1.10;;;;;;;13.73;100.00;101723.81;6399680;27;20050;-74
2022/06/16 05:01:58;;;;;;;3.78;1.00;;;;;;;13.81;99.05;101734.84;6385918;27;20047;-73
2022/06/16 05:05:01;;;;;;;1.27;1.00;;;;;;;13.84;98.18;101742.59;6373704;27;20418;-74
2022/06/16 05:08:03;;;;;;;4.20;1.60;;;;;;;13.81;98.69;101730.41;6374349;27;20136;-74
2022/06/16 05:11:06;;;;;;;2.33;1.73;;;;;;;13.84;98.50;101738.16;6373559;27;20051;-74
2022/06/16 05:14:08;;;;;;;6.63;1.80;;;;;;;13.78;99.64;101740.28;6373425;27;20048;-74
2022/06/16 05:17:09;;;;;;;1.92;1.40;;;;;;;13.77;99.95;101735.94;6373726;27;20043;-74
2022/06/16 05:20:12;;;;;;;3.33;1.52;;;;;;;13.74;99.77;101739.56;6373453;27;20051;-73
2022/06/16 05:23:14;;;;;;;3.55;1.50;;;;;;;13.80;100.00;101748.97;6373443;27;20043;-74
2022/06/16 05:26:15;;;;;;;3.47;1.80;;;;;;;13.82;100.00;101755.06;6373139;27;20501;-74
2022/06/16 05:29:19;;;;;;;3.13;1.33;;;;;;;13.83;100.00;101754.13;6373355;27;20414;-74
2022/06/16 05:32:20;;;;;;;3.75;1.45;;;;;;;13.90;100.00;101761.66;6374320;27;20186;-74
2022/06/16 05:35:23;;;;;;;1.38;1.27;;;;;;;13.94;100.00;101759.69;6372916;27;20054;-75
2022/06/16 05:38:24;;;;;;;3.08;1.38;;;;;;;13.98;99.98;101763.88;6373456;27;20039;-74
2022/06/16 05:41:26;;;;;;;3.90;1.55;;;;;;;14.08;99.97;101773.09;6372569;27;20057;-74
2022/06/16 05:44:27;;;;;;;2.08;1.20;;;;;;;14.14;99.69;101777.19;6372667;27;20047;-73
2022/06/16 05:47:29;;;;;;;2.15;1.10;;;;;;;14.14;98.89;101771.91;6373131;27;20043;-74
2022/06/16 05:50:31;;;;;;;2.53;1.30;;;;;;;14.10;99.19;101771.19;6372608;27;20062;-74
2022/06/16 05:53:33;;;;;;;2.28;1.42;;;;;;;14.17;98.63;101761.16;6372672;27;20418;-74
2022/06/16 05:56:35;;;;;;;1.40;1.10;;;;;;;14.21;98.72;101774.13;6372329;27;20050;-74
2022/06/16 05:59:37;;;;;;;3.38;1.20;;;;;;;14.28;97.65;101773.81;6372142;27;20058;-73
2022/06/16 06:02:38;;;;;;;6.45;1.10;;;;;;;14.31;96.17;101771.88;6373607;27;20129;-73
2022/06/16 06:05:41;;;;;;;3.13;0.75;;;;;;;14.29;95.98;101772.88;6372323;27;20518;-74
2022/06/16 06:18:47;;;;;;;1.52;1.15;;;;;;;14.51;95.40;101778.78;6372936;27;20047;-74
2022/06/16 06:22:00;;;;;;;1.00;0.90;;;;;;;14.61;95.10;101780.00;6371804;27;20051;-74
2022/06/16 06:25:01;;;;;;;1.65;0.82;;;;;;;14.71;95.12;101775.91;6371941;27;20043;-74
2022/06/16 06:28:03;;;;;;;0.90;0.75;;;;;;;14.81;93.78;101780.72;6372158;27;20570;-74
2022/06/16 06:31:04;;;;;;;2.83;0.75;;;;;;;14.81;92.90;101773.63;6372930;27;20046;-74
2022/06/16 06:34:06;;;;;;;2.67;1.00;;;;;;;14.90;92.83;101774.94;6371721;27;20043;-74
2022/06/16 06:37:10;;;;;;;1.90;0.93;;;;;;;14.97;91.66;101778.94;6372222;27;20047;-73
2022/06/16 06:40:17;;;;;;;5.70;1.75;;;;;;;15.09;91.86;101783.56;6371555;27;20047;-74
2022/06/16 06:43:18;;;;;;;0.90;0.60;;;;;;;15.18;90.64;101780.38;6372195;27;20043;-75
2022/06/16 06:46:19;;;;;;;1.08;0.95;;;;;;;15.24;89.62;101787.13;6371671;28;20058;-73
2022/06/16 06:49:21;;;;;;;1.45;0.88;;;;;;;15.30;87.60;101785.91;6372043;28;20058;-75
2022/06/16 06:52:23;;;;;;;2.28;0.85;;;;;;;15.36;87.06;101791.75;6371336;28;20051;-74
2022/06/16 06:55:25;;;;;;;1.08;0.90;;;;;;;15.38;86.50;101792.50;6371569;28;20498;-74
2022/06/16 06:58:26;;;;;;;1.30;0.68;;;;;;;15.45;84.21;101795.66;6371666;28;20054;-74
2022/06/16 07:01:28;;;;;;;0.70;0.63;;;;;;;15.55;85.33;101801.28;6372569;27;20050;-73
2022/06/16 07:04:29;;;;;;;1.02;0.70;;;;;;;15.66;82.69;101806.84;6371406;27;20043;-74
2022/06/16 07:07:34;;;;;;;1.25;0.80;;;;;;;15.78;81.90;101808.78;6371628;28;20051;-74
2022/06/16 07:10:35;;;;;;;5.45;1.25;;;;;;;16.00;81.81;101826.09;6374229;27;20058;-74
2022/06/16 07:13:36;;;;;;;1.08;0.60;;;;;;;16.05;78.94;101830.19;6376728;27;20043;-74
2022/06/16 07:16:38;;;;;;;2.78;0.80;;;;;;;16.04;78.28;101833.78;6376518;27;20050;-74
2022/06/16 07:19:39;;;;;;;3.85;0.70;;;;;;;16.08;77.94;101827.38;6376432;27;20058;-74
2022/06/16 07:22:42;;;;;;;1.52;0.90;;;;;;;16.17;77.75;101831.28;6376424;27;20062;-73
2022/06/16 07:25:43;;;;;;;0.88;0.60;;;;;;;16.29;78.75;101821.72;6375986;27;20051;-74
2022/06/16 07:28:45;;;;;;;1.35;0.57;;;;;;;16.33;77.01;101818.78;6376569;27;20069;-74
2022/06/16 07:31:46;;;;;;;0.95;0.57;;;;;;;16.35;75.99;101824.88;6394138;27;20049;-74
2022/06/16 07:34:48;;;;;;;3.38;0.88;;;;;;;16.34;72.77;101825.78;6401534;27;20038;-73
2022/06/16 07:37:51;;;;;;;2.28;1.25;;;;;;;16.35;73.53;101835.47;6401825;27;20417;-74
2022/06/16 07:41:30;;;;;;;1.42;0.70;;;;;;;16.39;74.02;101831.66;6401182;27;20409;-74
2022/06/16 07:44:16;;;;;;;1.17;0.68;;;;;;;16.45;71.39;101826.00;6400976;27;20043;-74
2022/06/16 07:47:19;;;;;;;1.20;0.73;;;;;;;16.56;71.66;101835.09;6402018;27;20051;-77
2022/06/16 07:50:21;;;;;;;1.92;1.13;;;;;;;16.56;70.89;101837.75;6402006;27;20057;-76
2022/06/16 07:53:24;;;;;;;1.38;0.75;;;;;;;16.51;68.53;101843.34;6377608;27;20131;-76
2022/06/16 07:56:25;;;;;;;3.22;0.50;;;;;;;16.50;69.71;101849.59;6375740;27;20051;-75
2022/06/16 07:59:27;;;;;;;0.60;0.60;;;;;;;16.51;69.72;101856.63;6375962;27;20050;-75
2022/06/16 08:02:29;;;;;;;0.40;0.40;;;;;;;16.55;68.90;101857.28;6376192;27;20058;-76
2022/06/16 08:05:30;;;;;;;4.05;0.60;;;;;;;16.57;67.68;101858.03;6375123;27;20082;-76
2022/06/16 08:08:33;;;;;;;0.85;0.50;;;;;;;16.60;65.64;101852.56;6375887;27;20047;-76
2022/06/16 08:14:54;;;;;;;0.47;0.40;;;;;;;16.65;64.98;101851.31;6375313;27;20051;-75
2022/06/16 08:17:57;;;;;;;1.48;0.50;;;;;;;16.67;63.49;101845.94;6375280;27;20133;-76
2022/06/16 08:20:59;;;;;;;1.05;0.75;;;;;;;16.78;64.38;101840.84;6375070;27;20054;-78
2022/06/16 08:24:02;;;;;;;3.13;0.55;;;;;;;16.84;61.92;101847.56;6374545;27;20414;-76
2022/06/16 08:27:04;;;;;;;0.68;0.45;;;;;;;16.86;61.76;101858.94;6375220;27;20047;-76
2022/06/16 08:30:09;;;;;;;0.47;0.30;;;;;;;16.88;61.46;101859.69;6380857;27;20050;-76
2022/06/16 08:33:13;;;;;;;1.63;0.43;;;;;;;16.92;61.56;101856.75;6400687;27;20051;-76
2022/06/16 08:36:15;;;;;;;1.15;0.40;;;;;;;16.96;62.36;101863.59;6400534;27;20518;-76
2022/06/16 08:39:18;;;;;;;0.65;0.52;;;;;;;17.12;61.42;101865.28;6400431;27;20054;-76
2022/06/16 08:42:25;;;;;;;3.47;0.60;;;;;;;17.22;61.07;101861.09;6400513;27;20057;-76
2022/06/16 08:45:32;;;;;;;0.68;0.50;;;;;;;17.35;59.75;101863.81;6400315;27;20047;-76
2022/06/16 08:48:45;;;;;;;4.22;1.08;;;;;;;17.35;58.94;101856.72;6400806;27;20053;-77
2022/06/16 08:51:58;;;;;;;1.00;0.63;;;;;;;17.41;58.10;101851.00;6399951;27;20163;-76
2022/06/16 08:55:12;;;;;;;0.75;0.40;;;;;;;17.49;57.59;101861.16;6400047;27;20414;-76
2022/06/16 08:58:21;;;;;;;4.10;0.40;;;;;;;17.55;56.26;101857.22;6377131;27;20051;-77
2022/06/16 09:01:26;;;;;;;2.10;0.82;;;;;;;17.63;56.07;101860.25;6373227;27;20436;-76
2022/06/16 09:04:32;;;;;;;1.27;0.45;;;;;;;17.69;58.00;101860.69;6372731;27;20038;-76
2022/06/16 09:07:46;;;;;;;0.52;0.52;;;;;;;17.73;57.03;101864.88;6372695;27;20094;-76
2022/06/16 09:10:56;;;;;;;0.90;0.85;;;;;;;17.76;58.01;101866.50;6369416;27;20043;-76
2022/06/16 09:18:07;;;;;;;0.65;0.55;;;;;;;17.84;58.83;101881.94;6370719;27;20070;-75
2022/06/16 09:21:21;;;;;;;0.68;0.63;;;;;;;17.88;59.44;101878.13;6369287;27;20088;-76
2022/06/16 09:24:44;;;;;;;0.80;0.50;;;;;;;17.99;57.59;101881.78;6371726;27;20050;-76
2022/06/16 09:27:52;;;;;;;0.30;0.30;;;;;;;18.17;54.39;101874.38;6348528;28;20059;-77
2022/06/16 09:30:56;;;;;;;1.00;0.50;;;;;;;18.21;54.64;101861.69;6364078;27;20055;-77
2022/06/16 09:34:07;;;;;;;1.30;0.60;;;;;;;18.33;55.07;101862.69;6398422;27;20050;-76
2022/06/16 09:37:18;;;;;;;0.38;0.38;;;;;;;18.43;52.25;101861.94;6375181;27;20051;-76
2022/06/16 09:40:24;;;;;;;0.90;0.43;;;;;;;18.48;51.07;101859.81;6371526;27;20047;-76
2022/06/16 09:43:34;;;;;;;1.17;0.40;;;;;;;18.49;50.18;101858.88;6372421;27;20054;-76
2022/06/16 09:46:37;;;;;;;;;;;;;;;18.49;51.36;101855.38;6371066;27;20043;-76
2022/06/16 09:49:44;;;;;;;0.35;0.30;;;;;;;18.63;50.93;101873.06;6371439;27;19923;-76
2022/06/16 09:52:49;;;;;;;0.22;0.20;;;;;;;18.61;49.07;101872.28;6373289;27;20039;-76
2022/06/16 09:55:55;;;;;;;0.43;0.40;;;;;;;18.58;48.99;101875.19;6372591;27;20054;-77
2022/06/16 09:59:02;;;;;;;0.55;0.50;;;;;;;18.72;48.87;101873.28;6373444;27;20051;-76
2022/06/16 10:02:07;;;;;;;0.35;0.35;;;;;;;18.82;48.86;101865.50;6370003;27;20054;-77
2022/06/16 10:05:13;;;;;;;0.77;0.47;;;;;;;18.89;48.88;101868.56;6372334;27;20054;-76
2022/06/16 10:08:21;;;;;;;1.30;0.57;;;;;;;19.06;48.77;101867.41;6380088;27;20238;-76
2022/06/16 10:11:34;;;;;;;1.38;0.50;;;;;;;19.10;48.80;101874.22;6384524;27;20043;-76
2022/06/16 10:14:45;;;;;;;1.98;0.40;;;;;;;19.13;46.78;101890.00;6372296;27;20051;-76
2022/06/16 10:17:48;;;;;;;0.77;0.32;;;;;;;19.11;47.06;101868.75;6373034;27;20054;-76
2022/06/16 10:20:50;;;;;;;1.27;0.40;;;;;;;19.20;46.06;101877.91;6371480;27;20414;-74
2022/06/16 10:23:54;;;;;;;3.20;0.47;;;;;;;19.22;45.12;101881.34;6370663;27;20050;-77
2022/06/16 10:26:59;;;;;;;0.32;0.30;;;;;;;19.32;48.94;101892.19;6370803;27;20050;-76
2022/06/16 10:30:05;;;;;;;0.80;0.40;;;;;;;19.38;49.38;101878.41;6372872;27;20047;-76
2022/06/16 10:33:12;;;;;;;2.22;0.50;;;;;;;19.50;45.54;101874.84;6372399;27;20054;-76
2022/06/16 10:36:17;;;;;;;0.20;0.20;;;;;;;19.70;44.88;101884.94;6371163;27;20122;-76
2022/06/16 10:39:22;;;;;;;0.35;0.35;;;;;;;19.86;45.48;101886.47;6370754;27;20050;-75
2022/06/16 10:42:28;;;;;;;0.70;0.63;;;;;;;19.88;46.63;101884.53;6369654;27;20043;-76
2022/06/16 10:45:34;;;;;;;2.83;0.30;;;;;;;19.93;45.53;101883.22;6368985;27;20043;-76
2022/06/16 10:48:38;;;;;;;0.55;0.30;;;;;;;20.03;45.35;101880.75;6371554;28;20039;-76
2022/06/16 10:51:51;;;;;;;0.30;0.30;;;;;;;20.18;45.68;101892.06;6371706;28;20043;-77
2022/06/16 10:54:58;;;;;;;0.70;0.30;;;;;;;20.18;45.48;101897.41;6371767;28;20043;-70
2022/06/16 10:58:02;;;;;;;0.63;0.30;;;;;;;20.20;46.92;101890.97;6372139;28;20054;-76
2022/06/16 11:01:11;;;;;;;0.60;0.30;;;;;;;20.32;46.37;101891.03;6391609;27;20131;-76
2022/06/16 11:04:17;;;;;;;0.25;0.25;;;;;;;20.59;41.58;101888.94;6397182;27;20047;-76
2022/06/16 11:07:22;;;;;;;2.83;0.68;;;;;;;20.79;41.16;101903.41;6380650;27;20047;-75
2022/06/16 11:10:31;;;;;;;1.20;0.28;;;;;;;20.81;39.68;101904.16;6371306;28;20414;-75
2022/06/16 11:13:36;;;;;;;6.03;0.32;;;;;;;20.87;41.91;101902.81;6371761;28;20410;-76
2022/06/16 11:16:46;;;;;;;3.83;0.30;;;;;;;21.07;41.75;101912.75;6371559;28;20502;-76
2022/06/16 11:19:52;;;;;;;0.30;0.30;;;;;;;21.40;39.65;101906.59;6371307;28;20043;-75
2022/06/16 11:22:57;;;;;;;2.30;0.35;;;;;;;21.40;38.12;101908.44;6371921;28;20062;-76
2022/06/16 11:26:07;;;;;;;0.25;0.25;;;;;;;21.67;38.98;101913.38;6371440;28;20043;-76
2022/06/16 11:29:23;;;;;;;0.55;0.47;;;;;;;21.77;37.26;101919.66;6372881;27;20487;-77
2022/06/16 11:32:28;;;;;;;0.17;0.17;;;;;;;21.79;38.20;101923.03;6371643;28;20053;-76
2022/06/16 11:35:38;;;;;;;0.30;0.30;;;;;;;21.99;38.57;101922.25;6371773;28;20131;-77
2022/06/16 11:38:50;;;;;;;0.35;0.35;;;;;;;21.99;38.27;101929.44;6371857;28;20480;-76
2022/06/16 11:41:54;;;;;;;1.20;0.60;;;;;;;22.49;37.45;101930.59;6371245;28;20062;-76
2022/06/16 11:45:03;;;;;;;3.17;0.68;;;;;;;22.53;37.59;101926.66;6371143;28;20063;-77
2022/06/16 11:48:18;;;;;;;0.80;0.80;;;;;;;22.85;39.03;101925.72;6371556;28;20058;-77
2022/06/16 11:51:25;;;;;;;1.27;0.43;;;;;;;22.80;37.87;101919.91;6371384;28;20051;-74
2022/06/16 11:54:38;;;;;;;0.73;0.60;;;;;;;23.14;38.02;101927.72;6370908;28;20043;-77
2022/06/16 11:57:46;;;;;;;1.15;0.50;;;;;;;23.40;37.90;101920.91;6375412;27;20074;-76
2022/06/16 12:00:53;;;;;;;0.50;0.40;;;;;;;23.37;37.12;101914.97;6376483;27;20146;-76
2022/06/16 12:04:19;;;;;;;1.00;0.52;;;;;;;23.44;38.44;101916.97;6362365;27;20047;-77
2022/06/16 12:07:52;;;;;;;0.73;0.40;;;;;;;23.46;37.80;101922.19;6375699;27;20388;-77
2022/06/16 12:10:56;;;;;;;0.98;0.50;;;;;;;23.51;38.62;101912.72;6374526;27;20070;-77
2022/06/16 12:14:08;;;;;;;0.73;0.50;;;;;;;23.70;37.84;101909.25;6374961;27;20070;-78
2022/06/16 12:17:16;;;;;;;0.70;0.40;;;;;;;23.59;38.12;101914.72;6375557;27;20426;-76
2022/06/16 12:20:27;;;;;;;0.93;0.60;;;;;;;23.71;37.80;101912.78;6375175;27;20483;-77
2022/06/16 12:23:35;;;;;;;3.15;0.45;;;;;;;24.13;38.10;101912.56;6375347;27;20049;-76
2022/06/16 12:26:42;;;;;;;1.60;0.45;;;;;;;24.33;37.99;101916.06;6375206;27;20043;-77
2022/06/16 12:29:52;;;;;;;0.63;0.55;;;;;;;24.20;37.48;101938.69;6376156;27;20054;-77
2022/06/16 12:33:05;;;;;;;1.25;0.50;;;;;;;24.32;38.28;101928.66;6375423;27;20055;-76
2022/06/16 12:36:12;;;;;;;1.52;0.68;;;;;;;24.27;37.38;101930.94;6374867;27;20047;-78
2022/06/16 12:39:19;;;;;;;4.25;0.60;;;;;;;23.68;37.80;101938.09;6375100;27;20686;-77
2022/06/16 12:42:24;;;;;;;2.85;0.60;;;;;;;23.09;38.61;101938.00;6374550;27;20395;-77
2022/06/16 12:45:31;;;;;;;1.80;0.60;;;;;;;23.62;38.99;101946.66;6374589;27;20107;-77
2022/06/16 12:48:40;;;;;;;0.70;0.40;;;;;;;24.21;37.43;101945.78;6374967;27;20478;-76
2022/06/16 12:51:48;;;;;;;1.90;0.53;;;;;;;24.52;37.48;101929.50;6374722;27;20047;-76
2022/06/16 12:54:54;;;;;;;3.58;0.60;;;;;;;24.96;37.42;101941.44;6375596;27;20054;-76
2022/06/16 12:58:01;;;;;;;1.20;0.50;;;;;;;24.71;37.29;101937.56;6375069;27;20054;-76
2022/06/16 13:01:06;;;;;;;1.25;0.90;;;;;;;24.66;36.55;101936.28;6374054;27;20127;-77
2022/06/16 13:04:12;;;;;;;0.98;0.47;;;;;;;24.03;38.45;101951.00;6374229;27;20062;-77
2022/06/16 13:07:20;;;;;;;5.20;0.80;;;;;;;23.49;37.83;101954.97;6373460;27;20051;-77
2022/06/16 13:10:21;;;;;;;0.43;0.43;;;;;;;23.73;37.04;101951.94;6374176;27;20047;-77
2022/06/16 13:13:28;;;;;;;1.45;0.57;;;;;;;23.20;37.45;101951.31;6374372;27;20051;-77
2022/06/16 13:16:32;;;;;;;1.42;0.52;;;;;;;23.47;37.94;101940.81;6373902;27;20046;-77
2022/06/16 13:19:39;;;;;;;1.25;0.65;;;;;;;23.36;39.12;101932.88;6373965;27;20421;-76
2022/06/16 13:22:44;;;;;;;0.68;0.40;;;;;;;23.43;39.26;101943.91;6373821;27;20043;-76
2022/06/16 13:25:48;;;;;;;0.52;0.40;;;;;;;23.71;38.63;101943.19;6395810;27;20042;-76
2022/06/16 13:28:53;;;;;;;0.63;0.60;;;;;;;23.93;37.30;101936.69;6399300;27;20054;-76
2022/06/16 13:32:02;;;;;;;1.92;0.65;;;;;;;24.07;37.07;101951.56;6399351;27;20054;-78
2022/06/16 13:35:29;;;;;;;6.72;0.60;;;;;;;24.87;36.82;101955.75;6398965;27;20416;-76
2022/06/16 13:38:48;;;;;;;1.90;0.50;;;;;;;24.77;35.89;101947.72;6399222;27;20435;-77
2022/06/16 13:42:02;;;;;;;0.77;0.52;;;;;;;23.97;37.53;101940.81;6399132;27;20050;-77
2022/06/16 13:45:24;;;;;;;1.05;0.70;;;;;;;24.10;37.77;101937.00;6399076;27;20047;-77
2022/06/16 13:48:47;;;;;;;0.77;0.65;;;;;;;24.61;36.44;101927.78;6399396;27;20042;-77
2022/06/16 13:51:48;;;;;;;1.20;0.70;;;;;;;24.12;37.70;101924.28;6398520;27;20125;-76
2022/06/16 13:54:51;;;;;;;1.58;0.60;;;;;;;23.88;38.03;101922.00;6397310;27;20043;-77
2022/06/16 13:58:15;;;;;;;0.98;0.68;;;;;;;24.21;38.33;101912.66;6398641;27;20413;-76
2022/06/16 14:01:19;;;;;;;1.77;0.57;;;;;;;23.99;37.79;101917.38;6398173;27;20069;-77
2022/06/16 14:04:24;;;;;;;1.52;0.70;;;;;;;23.43;39.69;101922.44;6398093;27;20043;-77
2022/06/16 14:07:26;;;;;;;1.00;0.70;;;;;;;23.41;39.84;101922.59;6398674;27;20050;-76
2022/06/16 14:10:33;;;;;;;0.73;0.60;;;;;;;23.55;38.75;101913.31;6398063;27;20455;-77
2022/06/16 14:13:41;;;;;;;0.80;0.70;;;;;;;24.18;38.72;101907.59;6398572;27;20133;-76
2022/06/16 14:16:44;;;;;;;1.67;0.68;;;;;;;24.71;38.52;101918.75;6398300;27;20042;-77
2022/06/16 14:19:45;;;;;;;0.50;0.45;;;;;;;25.11;35.58;101917.63;6397857;27;20055;-76
2022/06/16 14:22:51;;;;;;;0.88;0.55;;;;;;;24.85;36.74;101916.56;6397940;27;20058;-77
2022/06/16 14:25:58;;;;;;;1.98;1.00;;;;;;;24.53;36.45;101923.16;6395879;27;20050;-77
2022/06/16 14:29:04;;;;;;;1.95;0.65;;;;;;;24.12;38.35;101930.53;6398185;27;20190;-77
2022/06/16 14:32:08;;;;;;;2.35;0.65;;;;;;;23.52;38.38;101925.16;6397974;27;20572;-77
2022/06/16 14:35:16;;;;;;;1.20;0.88;;;;;;;23.12;39.86;101922.50;6397681;27;20410;-76
2022/06/16 14:38:23;;;;;;;0.57;0.55;;;;;;;22.68;40.34;101935.22;6398362;27;20536;-77
2022/06/16 14:41:29;;;;;;;0.93;0.60;;;;;;;22.44;40.89;101932.81;6397372;27;20457;-77
2022/06/16 14:44:35;;;;;;;1.25;0.50;;;;;;;22.45;41.31;101939.00;6397782;27;20047;-76